sensor_id;sensor_type;location;lat;lon;timestamp;temperature;humidity
11142;DHT22;5625;50.122;19.864;2022-12-18T00:00:08;-2.40;99.90
11142;DHT22;5625;50.122;19.864;2022-12-18T00:02:38;-2.40;99.90
11142;DHT22;5625;50.122;19.864;2022-12-18T00:05:07;-2.40;99.90
11142;DHT22;5625;50.122;19.864;2022-12-18T00:07:35;-2.40;99.90
11142;DHT22;5625;50.122;19.864;2022-12-18T00:10:05;-2.50;99.90
11142;DHT22;5625;50.122;19.864;2022-12-18T00:12:33;-2.50;99.90
11142;DHT22;5625;50.122;19.864;2022-12-18T00:15:02;-2.50;99.90
11142;DHT22;5625;50.122;19.864;2022-12-18T00:17:30;-2.40;99.90
11142;DHT22;5625;50.122;19.864;2022-12-18T00:19:59;-2.40;99.90
11142;DHT22;5625;50.122;19.864;2022-12-18T00:22:27;-2.40;99.90
11142;DHT22;5625;50.122;19.864;2022-12-18T00:24:55;-2.40;99.90
11142;DHT22;5625;50.122;19.864;2022-12-18T00:27:24;-2.40;99.90
11142;DHT22;5625;50.122;19.864;2022-12-18T00:29:52;-2.40;99.90
11142;DHT22;5625;50.122;19.864;2022-12-18T00:32:20;-2.40;99.90
11142;DHT22;5625;50.122;19.864;2022-12-18T00:34:48;-2.40;99.90
11142;DHT22;5625;50.122;19.864;2022-12-18T00:37:17;-2.40;99.90
11142;DHT22;5625;50.122;19.864;2022-12-18T00:39:48;-2.40;99.90
11142;DHT22;5625;50.122;19.864;2022-12-18T00:42:17;-2.40;99.90
11142;DHT22;5625;50.122;19.864;2022-12-18T00:45:02;-2.50;99.90
11142;DHT22;5625;50.122;19.864;2022-12-18T00:47:38;-2.50;99.90
11142;DHT22;5625;50.122;19.864;2022-12-18T00:50:07;-2.50;99.90
11142;DHT22;5625;50.122;19.864;2022-12-18T00:52:37;-2.50;99.90
11142;DHT22;5625;50.122;19.864;2022-12-18T00:55:05;-2.50;99.90
11142;DHT22;5625;50.122;19.864;2022-12-18T00:57:33;-2.60;99.90
11142;DHT22;5625;50.122;19.864;2022-12-18T01:00:02;-2.50;99.90
11142;DHT22;5625;50.122;19.864;2022-12-18T01:02:30;-2.50;99.90
11142;DHT22;5625;50.122;19.864;2022-12-18T01:04:58;-2.50;99.90
11142;DHT22;5625;50.122;19.864;2022-12-18T01:07:26;-2.50;99.90
11142;DHT22;5625;50.122;19.864;2022-12-18T01:09:56;-2.50;99.90
11142;DHT22;5625;50.122;19.864;2022-12-18T01:12:24;-2.50;99.90
11142;DHT22;5625;50.122;19.864;2022-12-18T01:14:52;-2.40;99.90
11142;DHT22;5625;50.122;19.864;2022-12-18T01:17:21;-2.50;99.90
11142;DHT22;5625;50.122;19.864;2022-12-18T01:19:49;-2.40;99.90
11142;DHT22;5625;50.122;19.864;2022-12-18T01:22:17;-2.40;99.90
11142;DHT22;5625;50.122;19.864;2022-12-18T01:24:45;-2.40;99.90
11142;DHT22;5625;50.122;19.864;2022-12-18T01:27:15;-2.40;99.90
11142;DHT22;5625;50.122;19.864;2022-12-18T01:29:43;-2.40;99.90
11142;DHT22;5625;50.122;19.864;2022-12-18T01:32:11;-2.50;99.90
11142;DHT22;5625;50.122;19.864;2022-12-18T01:34:39;-2.50;99.90
11142;DHT22;5625;50.122;19.864;2022-12-18T01:37:07;-2.40;99.90
11142;DHT22;5625;50.122;19.864;2022-12-18T01:39:36;-2.40;99.90
11142;DHT22;5625;50.122;19.864;2022-12-18T01:42:10;-2.40;99.90
11142;DHT22;5625;50.122;19.864;2022-12-18T01:45:08;-2.40;99.90
11142;DHT22;5625;50.122;19.864;2022-12-18T01:47:52;-2.40;99.90
11142;DHT22;5625;50.122;19.864;2022-12-18T01:50:22;-2.40;99.90
11142;DHT22;5625;50.122;19.864;2022-12-18T01:52:55;-2.40;99.90
11142;DHT22;5625;50.122;19.864;2022-12-18T01:55:27;-2.40;99.90
11142;DHT22;5625;50.122;19.864;2022-12-18T01:57:58;-2.40;99.90
11142;DHT22;5625;50.122;19.864;2022-12-18T02:00:28;-2.40;99.90
11142;DHT22;5625;50.122;19.864;2022-12-18T02:02:57;-2.40;99.90
11142;DHT22;5625;50.122;19.864;2022-12-18T02:05:33;-2.40;99.90
11142;DHT22;5625;50.122;19.864;2022-12-18T02:08:09;-2.40;99.90
11142;DHT22;5625;50.122;19.864;2022-12-18T02:10:44;-2.40;99.90
11142;DHT22;5625;50.122;19.864;2022-12-18T02:13:20;-2.40;99.90
11142;DHT22;5625;50.122;19.864;2022-12-18T02:15:56;-2.30;99.90
11142;DHT22;5625;50.122;19.864;2022-12-18T02:18:30;-2.30;99.90
11142;DHT22;5625;50.122;19.864;2022-12-18T02:21:04;-2.30;99.90
11142;DHT22;5625;50.122;19.864;2022-12-18T02:23:45;-2.30;99.90
11142;DHT22;5625;50.122;19.864;2022-12-18T02:26:19;-2.30;99.90
11142;DHT22;5625;50.122;19.864;2022-12-18T02:28:53;-2.30;99.90
11142;DHT22;5625;50.122;19.864;2022-12-18T02:31:25;-2.30;99.90
11142;DHT22;5625;50.122;19.864;2022-12-18T02:33:56;-2.30;99.90
11142;DHT22;5625;50.122;19.864;2022-12-18T02:36:27;-2.30;99.90
11142;DHT22;5625;50.122;19.864;2022-12-18T02:38:56;-2.30;99.90
11142;DHT22;5625;50.122;19.864;2022-12-18T02:41:28;-2.40;99.90
11142;DHT22;5625;50.122;19.864;2022-12-18T02:43:58;-2.30;99.90
11142;DHT22;5625;50.122;19.864;2022-12-18T02:46:33;-2.40;99.90
11142;DHT22;5625;50.122;19.864;2022-12-18T02:49:22;-2.40;99.90
11142;DHT22;5625;50.122;19.864;2022-12-18T02:51:56;-2.40;99.90
11142;DHT22;5625;50.122;19.864;2022-12-18T02:54:36;-2.40;99.90
11142;DHT22;5625;50.122;19.864;2022-12-18T02:57:15;-2.40;99.90
11142;DHT22;5625;50.122;19.864;2022-12-18T02:59:50;-2.40;99.90
11142;DHT22;5625;50.122;19.864;2022-12-18T03:02:25;-2.40;99.90
11142;DHT22;5625;50.122;19.864;2022-12-18T03:04:59;-2.40;99.90
11142;DHT22;5625;50.122;19.864;2022-12-18T03:07:35;-2.40;99.90
11142;DHT22;5625;50.122;19.864;2022-12-18T03:10:07;-2.40;99.90
11142;DHT22;5625;50.122;19.864;2022-12-18T03:12:41;-2.30;99.90
11142;DHT22;5625;50.122;19.864;2022-12-18T03:15:16;-2.30;99.90
11142;DHT22;5625;50.122;19.864;2022-12-18T03:17:52;-2.30;99.90
11142;DHT22;5625;50.122;19.864;2022-12-18T03:20:24;-2.30;99.90
11142;DHT22;5625;50.122;19.864;2022-12-18T03:22:57;-2.30;99.90
11142;DHT22;5625;50.122;19.864;2022-12-18T03:25:28;-2.30;99.90
11142;DHT22;5625;50.122;19.864;2022-12-18T03:28:00;-2.30;99.90
11142;DHT22;5625;50.122;19.864;2022-12-18T03:30:33;-2.30;99.90
11142;DHT22;5625;50.122;19.864;2022-12-18T03:33:07;-2.30;99.90
11142;DHT22;5625;50.122;19.864;2022-12-18T03:35:40;-2.30;99.90
11142;DHT22;5625;50.122;19.864;2022-12-18T03:38:09;-2.30;99.90
11142;DHT22;5625;50.122;19.864;2022-12-18T03:40:45;-2.30;99.90
11142;DHT22;5625;50.122;19.864;2022-12-18T03:43:20;-2.30;99.90
11142;DHT22;5625;50.122;19.864;2022-12-18T03:46:02;-2.30;99.90
11142;DHT22;5625;50.122;19.864;2022-12-18T03:48:32;-2.30;99.90
11142;DHT22;5625;50.122;19.864;2022-12-18T03:51:07;-2.40;99.90
11142;DHT22;5625;50.122;19.864;2022-12-18T03:53:39;-2.30;99.90
11142;DHT22;5625;50.122;19.864;2022-12-18T03:56:10;-2.40;99.90
11142;DHT22;5625;50.122;19.864;2022-12-18T03:58:42;-2.40;99.90
11142;DHT22;5625;50.122;19.864;2022-12-18T04:01:13;-2.40;99.90
11142;DHT22;5625;50.122;19.864;2022-12-18T04:03:44;-2.40;99.90
11142;DHT22;5625;50.122;19.864;2022-12-18T04:06:14;-2.40;99.90
11142;DHT22;5625;50.122;19.864;2022-12-18T04:08:43;-2.40;99.90
11142;DHT22;5625;50.122;19.864;2022-12-18T04:11:11;-2.40;99.90
11142;DHT22;5625;50.122;19.864;2022-12-18T04:13:42;-2.30;99.90
11142;DHT22;5625;50.122;19.864;2022-12-18T04:16:11;-2.40;99.90
11142;DHT22;5625;50.122;19.864;2022-12-18T04:18:39;-2.40;99.90
11142;DHT22;5625;50.122;19.864;2022-12-18T04:21:07;-2.40;99.90
11142;DHT22;5625;50.122;19.864;2022-12-18T04:23:35;-2.40;99.90
11142;DHT22;5625;50.122;19.864;2022-12-18T04:26:04;-2.40;99.90
11142;DHT22;5625;50.122;19.864;2022-12-18T04:28:32;-2.40;99.90
11142;DHT22;5625;50.122;19.864;2022-12-18T04:31:02;-2.40;99.90
11142;DHT22;5625;50.122;19.864;2022-12-18T04:33:30;-2.40;99.90
11142;DHT22;5625;50.122;19.864;2022-12-18T04:35:58;-2.40;99.90
11142;DHT22;5625;50.122;19.864;2022-12-18T04:38:26;-2.40;99.90
11142;DHT22;5625;50.122;19.864;2022-12-18T04:40:54;-2.40;99.90
11142;DHT22;5625;50.122;19.864;2022-12-18T04:43:22;-2.40;99.90
11142;DHT22;5625;50.122;19.864;2022-12-18T04:45:50;-2.40;99.90
11142;DHT22;5625;50.122;19.864;2022-12-18T04:48:20;-2.40;99.90
11142;DHT22;5625;50.122;19.864;2022-12-18T04:50:48;-2.40;99.90
11142;DHT22;5625;50.122;19.864;2022-12-18T04:53:16;-2.40;99.90
11142;DHT22;5625;50.122;19.864;2022-12-18T04:55:44;-2.40;99.90
11142;DHT22;5625;50.122;19.864;2022-12-18T04:58:14;-2.50;99.90
11142;DHT22;5625;50.122;19.864;2022-12-18T05:00:43;-2.50;99.90
11142;DHT22;5625;50.122;19.864;2022-12-18T05:03:11;-2.40;99.90
11142;DHT22;5625;50.122;19.864;2022-12-18T05:05:41;-2.40;99.90
11142;DHT22;5625;50.122;19.864;2022-12-18T05:08:09;-2.40;99.90
11142;DHT22;5625;50.122;19.864;2022-12-18T05:10:37;-2.40;99.90
11142;DHT22;5625;50.122;19.864;2022-12-18T05:13:05;-2.40;99.90
11142;DHT22;5625;50.122;19.864;2022-12-18T05:15:33;-2.40;99.90
11142;DHT22;5625;50.122;19.864;2022-12-18T05:18:02;-2.50;99.90
11142;DHT22;5625;50.122;19.864;2022-12-18T05:20:30;-2.40;99.90
11142;DHT22;5625;50.122;19.864;2022-12-18T05:23:00;-2.50;99.90
11142;DHT22;5625;50.122;19.864;2022-12-18T05:25:28;-2.40;99.90
11142;DHT22;5625;50.122;19.864;2022-12-18T05:27:56;-2.40;99.90
11142;DHT22;5625;50.122;19.864;2022-12-18T05:30:25;-2.40;99.90
11142;DHT22;5625;50.122;19.864;2022-12-18T05:32:54;-2.40;99.90
11142;DHT22;5625;50.122;19.864;2022-12-18T05:35:22;-2.40;99.90
11142;DHT22;5625;50.122;19.864;2022-12-18T05:37:50;-2.40;99.90
11142;DHT22;5625;50.122;19.864;2022-12-18T05:40:19;-2.40;99.90
11142;DHT22;5625;50.122;19.864;2022-12-18T05:42:47;-2.40;99.90
11142;DHT22;5625;50.122;19.864;2022-12-18T05:45:15;-2.40;99.90
11142;DHT22;5625;50.122;19.864;2022-12-18T05:47:43;-2.40;99.90
11142;DHT22;5625;50.122;19.864;2022-12-18T05:50:11;-2.50;99.90
11142;DHT22;5625;50.122;19.864;2022-12-18T05:52:39;-2.50;99.90
11142;DHT22;5625;50.122;19.864;2022-12-18T05:55:08;-2.50;99.90
11142;DHT22;5625;50.122;19.864;2022-12-18T05:57:37;-2.50;99.90
11142;DHT22;5625;50.122;19.864;2022-12-18T06:00:06;-2.50;99.90
11142;DHT22;5625;50.122;19.864;2022-12-18T06:02:34;-2.50;99.90
11142;DHT22;5625;50.122;19.864;2022-12-18T06:05:03;-2.50;99.90
11142;DHT22;5625;50.122;19.864;2022-12-18T06:07:31;-2.50;99.90
11142;DHT22;5625;50.122;19.864;2022-12-18T06:09:59;-2.50;99.90
11142;DHT22;5625;50.122;19.864;2022-12-18T06:12:27;-2.50;99.90
11142;DHT22;5625;50.122;19.864;2022-12-18T06:14:57;-2.50;99.90
11142;DHT22;5625;50.122;19.864;2022-12-18T06:17:28;-2.50;99.90
11142;DHT22;5625;50.122;19.864;2022-12-18T06:19:56;-2.50;99.90
11142;DHT22;5625;50.122;19.864;2022-12-18T06:22:25;-2.60;99.90
11142;DHT22;5625;50.122;19.864;2022-12-18T06:24:53;-2.60;99.90
11142;DHT22;5625;50.122;19.864;2022-12-18T06:27:21;-2.60;99.90
11142;DHT22;5625;50.122;19.864;2022-12-18T06:29:49;-2.60;99.90
11142;DHT22;5625;50.122;19.864;2022-12-18T06:32:19;-2.60;99.90
11142;DHT22;5625;50.122;19.864;2022-12-18T06:34:47;-2.60;99.90
11142;DHT22;5625;50.122;19.864;2022-12-18T06:37:15;-2.60;99.90
11142;DHT22;5625;50.122;19.864;2022-12-18T06:39:43;-2.60;99.90
11142;DHT22;5625;50.122;19.864;2022-12-18T06:42:11;-2.60;99.90
11142;DHT22;5625;50.122;19.864;2022-12-18T06:44:39;-2.60;99.90
11142;DHT22;5625;50.122;19.864;2022-12-18T06:47:07;-2.60;99.90
11142;DHT22;5625;50.122;19.864;2022-12-18T06:49:37;-2.60;99.90
11142;DHT22;5625;50.122;19.864;2022-12-18T06:52:05;-2.60;99.90
11142;DHT22;5625;50.122;19.864;2022-12-18T06:54:33;-2.60;99.90
11142;DHT22;5625;50.122;19.864;2022-12-18T06:57:01;-2.60;99.90
11142;DHT22;5625;50.122;19.864;2022-12-18T06:59:29;-2.60;99.90
11142;DHT22;5625;50.122;19.864;2022-12-18T07:01:57;-2.60;99.90
11142;DHT22;5625;50.122;19.864;2022-12-18T07:04:28;-2.60;99.90
11142;DHT22;5625;50.122;19.864;2022-12-18T07:06:58;-2.60;99.90
11142;DHT22;5625;50.122;19.864;2022-12-18T07:09:26;-2.60;99.90
11142;DHT22;5625;50.122;19.864;2022-12-18T07:11:57;-2.60;99.90
11142;DHT22;5625;50.122;19.864;2022-12-18T07:14:25;-2.60;99.90
11142;DHT22;5625;50.122;19.864;2022-12-18T07:16:53;-2.60;99.90
11142;DHT22;5625;50.122;19.864;2022-12-18T07:19:24;-2.60;99.90
11142;DHT22;5625;50.122;19.864;2022-12-18T07:21:55;-2.60;99.90
11142;DHT22;5625;50.122;19.864;2022-12-18T07:24:24;-2.50;99.90
11142;DHT22;5625;50.122;19.864;2022-12-18T07:26:54;-2.50;99.90
11142;DHT22;5625;50.122;19.864;2022-12-18T07:29:22;-2.50;99.90
11142;DHT22;5625;50.122;19.864;2022-12-18T07:31:50;-2.50;99.90
11142;DHT22;5625;50.122;19.864;2022-12-18T07:34:19;-2.50;99.90
11142;DHT22;5625;50.122;19.864;2022-12-18T07:36:47;-2.40;99.90
11142;DHT22;5625;50.122;19.864;2022-12-18T07:39:15;-2.40;99.90
11142;DHT22;5625;50.122;19.864;2022-12-18T07:41:44;-2.40;99.90
11142;DHT22;5625;50.122;19.864;2022-12-18T07:44:33;-2.40;99.90
11142;DHT22;5625;50.122;19.864;2022-12-18T07:47:01;-2.30;99.90
11142;DHT22;5625;50.122;19.864;2022-12-18T07:49:37;-2.30;99.90
11142;DHT22;5625;50.122;19.864;2022-12-18T07:52:05;-2.30;99.90
11142;DHT22;5625;50.122;19.864;2022-12-18T07:54:33;-2.20;99.90
11142;DHT22;5625;50.122;19.864;2022-12-18T07:57:03;-2.20;99.90
11142;DHT22;5625;50.122;19.864;2022-12-18T07:59:51;-2.20;99.90
11142;DHT22;5625;50.122;19.864;2022-12-18T08:02:19;-2.20;99.90
11142;DHT22;5625;50.122;19.864;2022-12-18T08:04:47;-2.10;99.90
11142;DHT22;5625;50.122;19.864;2022-12-18T08:07:15;-2.10;99.90
11142;DHT22;5625;50.122;19.864;2022-12-18T08:09:43;-2.00;99.90
11142;DHT22;5625;50.122;19.864;2022-12-18T08:12:12;-2.00;99.90
11142;DHT22;5625;50.122;19.864;2022-12-18T08:14:42;-2.00;99.90
11142;DHT22;5625;50.122;19.864;2022-12-18T08:17:10;-2.00;99.90
11142;DHT22;5625;50.122;19.864;2022-12-18T08:19:38;-2.00;99.90
11142;DHT22;5625;50.122;19.864;2022-12-18T08:22:06;-1.90;99.90
11142;DHT22;5625;50.122;19.864;2022-12-18T08:24:34;-1.90;99.90
11142;DHT22;5625;50.122;19.864;2022-12-18T08:27:03;-1.80;99.90
11142;DHT22;5625;50.122;19.864;2022-12-18T08:29:52;-1.80;99.90
11142;DHT22;5625;50.122;19.864;2022-12-18T08:32:20;-1.70;99.90
11142;DHT22;5625;50.122;19.864;2022-12-18T08:34:48;-1.70;99.90
11142;DHT22;5625;50.122;19.864;2022-12-18T08:37:16;-1.70;99.90
11142;DHT22;5625;50.122;19.864;2022-12-18T08:39:44;-1.60;99.90
11142;DHT22;5625;50.122;19.864;2022-12-18T08:42:12;-1.60;99.90
11142;DHT22;5625;50.122;19.864;2022-12-18T08:44:59;-1.50;99.90
11142;DHT22;5625;50.122;19.864;2022-12-18T08:47:27;-1.50;99.90
11142;DHT22;5625;50.122;19.864;2022-12-18T08:49:55;-1.50;99.90
11142;DHT22;5625;50.122;19.864;2022-12-18T08:52:23;-1.40;99.90
11142;DHT22;5625;50.122;19.864;2022-12-18T08:54:51;-1.40;99.90
11142;DHT22;5625;50.122;19.864;2022-12-18T08:57:19;-1.40;99.90
11142;DHT22;5625;50.122;19.864;2022-12-18T08:59:50;-1.40;99.90
11142;DHT22;5625;50.122;19.864;2022-12-18T09:02:19;-1.30;99.90
11142;DHT22;5625;50.122;19.864;2022-12-18T09:04:48;-1.20;99.90
11142;DHT22;5625;50.122;19.864;2022-12-18T09:07:23;-1.20;99.90
11142;DHT22;5625;50.122;19.864;2022-12-18T09:09:51;-1.20;99.90
11142;DHT22;5625;50.122;19.864;2022-12-18T09:12:19;-1.10;99.90
11142;DHT22;5625;50.122;19.864;2022-12-18T09:14:47;-1.00;99.90
11142;DHT22;5625;50.122;19.864;2022-12-18T09:17:15;-1.00;99.90
11142;DHT22;5625;50.122;19.864;2022-12-18T09:19:45;-0.90;99.90
11142;DHT22;5625;50.122;19.864;2022-12-18T09:22:13;-0.90;99.90
11142;DHT22;5625;50.122;19.864;2022-12-18T09:24:41;-0.70;99.90
11142;DHT22;5625;50.122;19.864;2022-12-18T09:27:09;-0.70;99.90
11142;DHT22;5625;50.122;19.864;2022-12-18T09:29:37;-0.70;99.90
11142;DHT22;5625;50.122;19.864;2022-12-18T09:32:05;-0.60;99.90
11142;DHT22;5625;50.122;19.864;2022-12-18T09:34:36;-0.30;99.90
11142;DHT22;5625;50.122;19.864;2022-12-18T09:37:05;-0.20;99.90
11142;DHT22;5625;50.122;19.864;2022-12-18T09:39:35;-0.10;99.90
11142;DHT22;5625;50.122;19.864;2022-12-18T09:42:04;-0.10;99.90
11142;DHT22;5625;50.122;19.864;2022-12-18T09:44:35;-0.10;99.90
11142;DHT22;5625;50.122;19.864;2022-12-18T09:47:13;0.10;99.90
11142;DHT22;5625;50.122;19.864;2022-12-18T09:49:44;0.30;99.90
11142;DHT22;5625;50.122;19.864;2022-12-18T09:52:19;0.20;99.90
11142;DHT22;5625;50.122;19.864;2022-12-18T09:54:53;0.10;99.90
11142;DHT22;5625;50.122;19.864;2022-12-18T09:57:24;0.00;99.90
11142;DHT22;5625;50.122;19.864;2022-12-18T09:59:57;0.00;99.90
11142;DHT22;5625;50.122;19.864;2022-12-18T10:02:30;0.00;99.90
11142;DHT22;5625;50.122;19.864;2022-12-18T10:05:05;0.10;99.90
11142;DHT22;5625;50.122;19.864;2022-12-18T10:07:43;0.10;99.90
11142;DHT22;5625;50.122;19.864;2022-12-18T10:10:30;0.10;99.90
11142;DHT22;5625;50.122;19.864;2022-12-18T10:13:06;0.10;99.90
11142;DHT22;5625;50.122;19.864;2022-12-18T10:15:42;0.10;99.90
11142;DHT22;5625;50.122;19.864;2022-12-18T10:18:23;0.20;99.90
11142;DHT22;5625;50.122;19.864;2022-12-18T10:20:56;0.20;99.90
11142;DHT22;5625;50.122;19.864;2022-12-18T10:23:33;0.20;99.90
11142;DHT22;5625;50.122;19.864;2022-12-18T10:26:04;0.10;99.90
11142;DHT22;5625;50.122;19.864;2022-12-18T10:28:36;0.20;99.90
11142;DHT22;5625;50.122;19.864;2022-12-18T10:31:05;0.20;99.90
11142;DHT22;5625;50.122;19.864;2022-12-18T10:33:36;0.20;99.90
11142;DHT22;5625;50.122;19.864;2022-12-18T10:36:04;0.20;99.90
11142;DHT22;5625;50.122;19.864;2022-12-18T10:38:34;0.30;99.90
11142;DHT22;5625;50.122;19.864;2022-12-18T10:41:04;0.40;99.90
11142;DHT22;5625;50.122;19.864;2022-12-18T10:43:34;0.30;99.90
11142;DHT22;5625;50.122;19.864;2022-12-18T10:46:11;0.30;99.90
11142;DHT22;5625;50.122;19.864;2022-12-18T10:48:49;0.30;99.90
11142;DHT22;5625;50.122;19.864;2022-12-18T10:51:23;0.30;99.90
11142;DHT22;5625;50.122;19.864;2022-12-18T10:53:56;0.30;99.90
11142;DHT22;5625;50.122;19.864;2022-12-18T10:56:26;0.30;99.90
11142;DHT22;5625;50.122;19.864;2022-12-18T10:58:57;0.30;99.90
11142;DHT22;5625;50.122;19.864;2022-12-18T11:01:26;0.40;99.90
11142;DHT22;5625;50.122;19.864;2022-12-18T11:04:08;0.40;99.90
11142;DHT22;5625;50.122;19.864;2022-12-18T11:06:53;0.40;99.90
11142;DHT22;5625;50.122;19.864;2022-12-18T11:09:25;0.30;99.90
11142;DHT22;5625;50.122;19.864;2022-12-18T11:11:55;0.30;99.90
11142;DHT22;5625;50.122;19.864;2022-12-18T11:14:26;0.30;99.90
11142;DHT22;5625;50.122;19.864;2022-12-18T11:16:55;0.20;99.90
11142;DHT22;5625;50.122;19.864;2022-12-18T11:19:45;0.20;99.90
11142;DHT22;5625;50.122;19.864;2022-12-18T11:22:21;0.20;99.90
11142;DHT22;5625;50.122;19.864;2022-12-18T11:24:57;0.20;99.90
11142;DHT22;5625;50.122;19.864;2022-12-18T11:27:52;0.10;99.90
11142;DHT22;5625;50.122;19.864;2022-12-18T11:30:25;0.10;99.90
11142;DHT22;5625;50.122;19.864;2022-12-18T11:32:56;0.00;99.90
11142;DHT22;5625;50.122;19.864;2022-12-18T11:35:35;0.00;99.90
11142;DHT22;5625;50.122;19.864;2022-12-18T11:38:16;0.00;99.90
11142;DHT22;5625;50.122;19.864;2022-12-18T11:40:51;0.00;99.90
11142;DHT22;5625;50.122;19.864;2022-12-18T11:43:26;0.00;99.90
11142;DHT22;5625;50.122;19.864;2022-12-18T11:45:59;-0.10;99.90
11142;DHT22;5625;50.122;19.864;2022-12-18T11:48:32;-0.10;99.90
11142;DHT22;5625;50.122;19.864;2022-12-18T11:51:04;-0.20;99.90
11142;DHT22;5625;50.122;19.864;2022-12-18T11:53:32;-0.20;99.90
11142;DHT22;5625;50.122;19.864;2022-12-18T11:56:25;-0.20;99.90
11142;DHT22;5625;50.122;19.864;2022-12-18T11:59:04;-0.20;99.90
11142;DHT22;5625;50.122;19.864;2022-12-18T12:01:45;-0.20;99.90
11142;DHT22;5625;50.122;19.864;2022-12-18T12:04:45;-0.20;99.90
11142;DHT22;5625;50.122;19.864;2022-12-18T12:07:26;-0.30;99.90
11142;DHT22;5625;50.122;19.864;2022-12-18T12:10:03;-0.30;99.90
11142;DHT22;5625;50.122;19.864;2022-12-18T12:12:53;-0.30;99.90
11142;DHT22;5625;50.122;19.864;2022-12-18T12:15:30;-0.40;99.90
11142;DHT22;5625;50.122;19.864;2022-12-18T12:18:09;-0.30;99.90
11142;DHT22;5625;50.122;19.864;2022-12-18T12:20:49;-0.30;99.90
11142;DHT22;5625;50.122;19.864;2022-12-18T12:23:29;-0.40;99.90
11142;DHT22;5625;50.122;19.864;2022-12-18T12:26:04;-0.40;99.90
11142;DHT22;5625;50.122;19.864;2022-12-18T12:28:54;-0.40;99.90
11142;DHT22;5625;50.122;19.864;2022-12-18T12:31:33;-0.40;99.90
11142;DHT22;5625;50.122;19.864;2022-12-18T12:34:16;-0.40;99.90
11142;DHT22;5625;50.122;19.864;2022-12-18T12:36:58;-0.40;99.90
11142;DHT22;5625;50.122;19.864;2022-12-18T12:39:32;-0.40;99.90
11142;DHT22;5625;50.122;19.864;2022-12-18T12:42:02;-0.30;99.90
11142;DHT22;5625;50.122;19.864;2022-12-18T12:44:52;0.10;99.90
11142;DHT22;5625;50.122;19.864;2022-12-18T12:47:26;0.30;99.90
11142;DHT22;5625;50.122;19.864;2022-12-18T12:49:56;0.30;99.90
11142;DHT22;5625;50.122;19.864;2022-12-18T12:52:30;0.10;99.90
11142;DHT22;5625;50.122;19.864;2022-12-18T12:55:03;0.00;99.90
11142;DHT22;5625;50.122;19.864;2022-12-18T12:57:42;-0.20;99.90
11142;DHT22;5625;50.122;19.864;2022-12-18T13:00:20;-0.20;99.90
11142;DHT22;5625;50.122;19.864;2022-12-18T13:02:54;-0.30;99.90
11142;DHT22;5625;50.122;19.864;2022-12-18T13:05:29;-0.40;99.90
11142;DHT22;5625;50.122;19.864;2022-12-18T13:08:03;-0.40;99.90
11142;DHT22;5625;50.122;19.864;2022-12-18T13:10:35;-0.50;99.90
11142;DHT22;5625;50.122;19.864;2022-12-18T13:13:06;-0.50;99.90
11142;DHT22;5625;50.122;19.864;2022-12-18T13:15:41;-0.50;99.90
11142;DHT22;5625;50.122;19.864;2022-12-18T13:18:15;-0.60;99.90
11142;DHT22;5625;50.122;19.864;2022-12-18T13:20:46;-0.60;99.90
11142;DHT22;5625;50.122;19.864;2022-12-18T13:23:33;-0.60;99.90
11142;DHT22;5625;50.122;19.864;2022-12-18T13:26:29;-0.70;99.90
11142;DHT22;5625;50.122;19.864;2022-12-18T13:28:59;-0.70;99.90
11142;DHT22;5625;50.122;19.864;2022-12-18T13:32:00;-0.80;99.90
11142;DHT22;5625;50.122;19.864;2022-12-18T13:34:29;-0.80;99.90
11142;DHT22;5625;50.122;19.864;2022-12-18T13:40:00;-0.90;99.90
11142;DHT22;5625;50.122;19.864;2022-12-18T13:42:37;-0.90;99.90
11142;DHT22;5625;50.122;19.864;2022-12-18T13:45:45;-1.00;99.90
11142;DHT22;5625;50.122;19.864;2022-12-18T13:48:22;-1.00;99.90
11142;DHT22;5625;50.122;19.864;2022-12-18T13:50:59;-1.10;99.90
11142;DHT22;5625;50.122;19.864;2022-12-18T13:53:35;-1.10;99.90
11142;DHT22;5625;50.122;19.864;2022-12-18T13:56:06;-1.20;99.90
11142;DHT22;5625;50.122;19.864;2022-12-18T13:58:34;-1.20;99.90
11142;DHT22;5625;50.122;19.864;2022-12-18T14:01:02;-1.20;99.90
11142;DHT22;5625;50.122;19.864;2022-12-18T14:03:32;-1.30;99.90
11142;DHT22;5625;50.122;19.864;2022-12-18T14:06:04;-1.30;99.90
11142;DHT22;5625;50.122;19.864;2022-12-18T14:08:39;-1.40;99.90
11142;DHT22;5625;50.122;19.864;2022-12-18T14:11:19;-1.40;99.90
11142;DHT22;5625;50.122;19.864;2022-12-18T14:13:49;-1.40;99.90
11142;DHT22;5625;50.122;19.864;2022-12-18T14:16:18;-1.50;99.90
11142;DHT22;5625;50.122;19.864;2022-12-18T14:18:51;-1.50;99.90
11142;DHT22;5625;50.122;19.864;2022-12-18T14:21:24;-1.60;99.90
11142;DHT22;5625;50.122;19.864;2022-12-18T14:24:12;-1.60;99.90
11142;DHT22;5625;50.122;19.864;2022-12-18T14:26:45;-1.70;99.90
11142;DHT22;5625;50.122;19.864;2022-12-18T14:29:22;-1.70;99.90
11142;DHT22;5625;50.122;19.864;2022-12-18T14:32:11;-1.80;99.90
11142;DHT22;5625;50.122;19.864;2022-12-18T14:34:47;-1.90;99.90
11142;DHT22;5625;50.122;19.864;2022-12-18T14:37:17;-1.90;99.90
11142;DHT22;5625;50.122;19.864;2022-12-18T14:39:57;-1.90;99.90
11142;DHT22;5625;50.122;19.864;2022-12-18T14:42:33;-2.00;99.90
11142;DHT22;5625;50.122;19.864;2022-12-18T14:45:33;-2.00;99.90
11142;DHT22;5625;50.122;19.864;2022-12-18T14:48:11;-2.10;99.90
11142;DHT22;5625;50.122;19.864;2022-12-18T14:50:57;-2.20;99.90
11142;DHT22;5625;50.122;19.864;2022-12-18T14:53:41;-2.30;99.90
11142;DHT22;5625;50.122;19.864;2022-12-18T14:56:20;-2.30;99.90
11142;DHT22;5625;50.122;19.864;2022-12-18T14:58:53;-2.30;99.90
11142;DHT22;5625;50.122;19.864;2022-12-18T15:01:24;-2.40;99.90
11142;DHT22;5625;50.122;19.864;2022-12-18T15:03:56;-2.50;99.90
11142;DHT22;5625;50.122;19.864;2022-12-18T15:06:32;-2.50;99.90
11142;DHT22;5625;50.122;19.864;2022-12-18T15:09:03;-2.50;99.90
11142;DHT22;5625;50.122;19.864;2022-12-18T15:11:43;-2.60;99.90
11142;DHT22;5625;50.122;19.864;2022-12-18T15:14:34;-2.60;99.90
11142;DHT22;5625;50.122;19.864;2022-12-18T15:17:06;-2.60;99.90
11142;DHT22;5625;50.122;19.864;2022-12-18T15:19:44;-2.70;99.90
11142;DHT22;5625;50.122;19.864;2022-12-18T15:22:23;-2.70;99.90
11142;DHT22;5625;50.122;19.864;2022-12-18T15:24:54;-2.80;99.90
11142;DHT22;5625;50.122;19.864;2022-12-18T15:27:28;-2.80;99.90
11142;DHT22;5625;50.122;19.864;2022-12-18T15:32:48;-2.80;99.90
11142;DHT22;5625;50.122;19.864;2022-12-18T15:35:19;-2.90;99.90
11142;DHT22;5625;50.122;19.864;2022-12-18T15:37:50;-2.90;99.90
11142;DHT22;5625;50.122;19.864;2022-12-18T15:40:20;-2.90;99.90
11142;DHT22;5625;50.122;19.864;2022-12-18T15:42:50;-2.90;99.90
11142;DHT22;5625;50.122;19.864;2022-12-18T15:45:38;-2.90;99.90
11142;DHT22;5625;50.122;19.864;2022-12-18T15:48:18;-2.90;99.90
11142;DHT22;5625;50.122;19.864;2022-12-18T15:50:47;-3.00;99.90
11142;DHT22;5625;50.122;19.864;2022-12-18T15:53:18;-3.00;99.90
11142;DHT22;5625;50.122;19.864;2022-12-18T15:55:46;-3.00;99.90
11142;DHT22;5625;50.122;19.864;2022-12-18T15:58:32;-3.10;99.90
11142;DHT22;5625;50.122;19.864;2022-12-18T16:01:00;-3.10;99.90
11142;DHT22;5625;50.122;19.864;2022-12-18T16:03:29;-3.20;99.90
11142;DHT22;5625;50.122;19.864;2022-12-18T16:05:57;-3.30;99.90
11142;DHT22;5625;50.122;19.864;2022-12-18T16:08:31;-3.40;99.90
11142;DHT22;5625;50.122;19.864;2022-12-18T16:10:59;-3.40;99.90